Time;durP1;ratioP1;P1;durP2;ratioP2;P2;SDS_P1;SDS_P2;PMS_P1;PMS_P2;Temp;Humidity;BMP_temperature;BMP_pressure;BME280_temperature;BME280_humidity;BME280_pressure;Samples;Min_cycle;Max_cycle;Signal;HPM_P1;HPM_P2
2022/12/27 00:00:58;;;;;;;2.03;1.50;;;11.10;61.60;;;;;;4993683;28;20878;-58
2022/12/27 00:03:24;;;;;;;1.03;0.93;;;11.00;61.70;;;;;;4993556;28;20234;-57
2022/12/27 00:05:49;;;;;;;2.50;1.30;;;10.80;62.70;;;;;;4993182;28;20260;-58
2022/12/27 00:08:15;;;;;;;6.23;1.67;;;10.70;63.10;;;;;;4993477;28;20190;-58
2022/12/27 00:10:41;;;;;;;4.00;1.00;;;10.90;62.50;;;;;;4993385;28;20294;-58
2022/12/27 00:13:06;;;;;;;1.40;1.30;;;10.90;62.30;;;;;;4993351;28;20223;-58
2022/12/27 00:15:33;;;;;;;2.50;1.37;;;11.00;62.30;;;;;;4991404;28;20338;-58
2022/12/27 00:17:59;;;;;;;1.47;0.90;;;10.60;61.80;;;;;;4993026;28;20296;-57
2022/12/27 00:20:25;;;;;;;2.07;1.10;;;10.60;62.00;;;;;;4993407;28;20906;-58
2022/12/27 00:22:51;;;;;;;3.30;1.40;;;10.50;62.20;;;;;;4993096;28;20194;-58
2022/12/27 00:25:16;;;;;;;1.80;1.20;;;10.70;62.30;;;;;;4992909;28;20504;-58
2022/12/27 00:27:42;;;;;;;9.33;2.10;;;10.80;61.70;;;;;;4991555;28;20203;-58
2022/12/27 00:30:08;;;;;;;1.67;1.30;;;11.00;60.90;;;;;;4993152;28;20191;-58
2022/12/27 00:32:34;;;;;;;2.63;1.17;;;11.00;60.60;;;;;;4992932;28;20198;-58
2022/12/27 00:34:59;;;;;;;3.67;1.40;;;10.70;60.40;;;;;;4993066;28;20431;-57
2022/12/27 00:37:25;;;;;;;3.63;1.37;;;10.70;60.90;;;;;;4992524;28;20199;-58
2022/12/27 00:39:51;;;;;;;4.93;0.90;;;10.80;60.90;;;;;;4992672;28;20206;-57
2022/12/27 00:42:16;;;;;;;3.40;1.20;;;11.00;60.10;;;;;;4991420;28;20893;-57
2022/12/27 00:44:42;;;;;;;3.70;1.00;;;11.10;59.50;;;;;;4992623;28;20545;-58
2022/12/27 00:47:09;;;;;;;1.40;1.07;;;11.20;59.40;;;;;;4992549;28;20249;-58
2022/12/27 00:49:35;;;;;;;4.30;1.70;;;11.00;59.40;;;;;;4992688;28;20187;-58
2022/12/27 00:52:00;;;;;;;1.27;1.17;;;11.10;59.10;;;;;;4992691;28;20437;-58
2022/12/27 00:54:26;;;;;;;1.60;1.00;;;11.30;58.90;;;;;;4992751;28;20198;-58
2022/12/27 00:56:52;;;;;;;2.73;1.13;;;11.30;58.60;;;;;;4992134;28;20681;-58
2022/12/27 00:59:17;;;;;;;2.50;1.00;;;11.20;58.40;;;;;;4992621;28;20646;-58
2022/12/27 01:01:43;;;;;;;2.60;1.10;;;10.90;58.60;;;;;;4992968;28;20205;-57
2022/12/27 01:04:11;;;;;;;4.40;1.53;;;10.70;59.00;;;;;;4992674;28;20627;-57
2022/12/27 01:06:37;;;;;;;1.63;1.03;;;10.60;59.20;;;;;;4992054;28;20218;-57
2022/12/27 01:09:03;;;;;;;1.37;1.20;;;10.70;59.50;;;;;;4990944;28;20433;-57
2022/12/27 01:11:29;;;;;;;2.20;1.00;;;10.80;58.80;;;;;;4992617;28;20197;-57
2022/12/27 01:14:00;;;;;;;2.40;1.03;;;10.80;58.60;;;;;;4992488;28;20426;-58
2022/12/27 01:16:27;;;;;;;1.40;1.10;;;10.70;58.60;;;;;;4991755;28;20513;-58
2022/12/27 01:18:54;;;;;;;3.10;1.17;;;10.60;58.20;;;;;;4992142;28;20457;-57
2022/12/27 01:21:21;;;;;;;3.73;1.60;;;10.60;58.50;;;;;;4992173;28;20429;-57
2022/12/27 01:23:48;;;;;;;1.73;1.20;;;10.40;58.00;;;;;;4992209;28;20421;-57
2022/12/27 01:26:18;;;;;;;3.47;1.60;;;10.30;58.10;;;;;;4991552;28;20603;-57
2022/12/27 01:28:44;;;;;;;1.30;1.20;;;10.30;57.70;;;;;;4991969;28;20441;-57
2022/12/27 01:31:26;;;;;;;2.40;1.20;;;10.20;57.40;;;;;;4992182;28;20426;-57
2022/12/27 01:33:56;;;;;;;2.90;1.17;;;10.10;57.60;;;;;;4990367;28;20430;-58
2022/12/27 01:36:24;;;;;;;4.90;1.10;;;10.10;57.40;;;;;;4991147;28;20807;-57
2022/12/27 01:38:50;;;;;;;3.27;1.20;;;10.40;57.10;;;;;;4991950;28;20441;-57
2022/12/27 01:44:33;;;;;;;4.00;1.20;;;10.40;56.50;;;;;;4992067;28;20475;-57
2022/12/27 01:47:00;;;;;;;2.30;0.90;;;10.70;56.20;;;;;;4991643;28;20476;-57
2022/12/27 01:49:26;;;;;;;3.37;1.17;;;10.80;55.90;;;;;;4991923;28;20944;-57
2022/12/27 01:51:51;;;;;;;3.07;1.13;;;10.90;55.60;;;;;;4991916;28;20426;-57
2022/12/27 01:54:17;;;;;;;2.83;1.30;;;10.90;55.10;;;;;;4991959;28;20205;-57
2022/12/27 01:56:42;;;;;;;1.10;1.00;;;10.90;55.20;;;;;;4991602;28;20191;-57
2022/12/27 01:59:09;;;;;;;2.37;0.90;;;11.00;54.90;;;;;;4992003;28;20277;-58
2022/12/27 02:01:41;;;;;;;3.70;1.10;;;11.00;54.50;;;;;;4990366;28;20276;-57
2022/12/27 02:04:11;;;;;;;3.80;1.10;;;11.10;54.50;;;;;;4991799;28;20437;-57
2022/12/27 02:06:38;;;;;;;1.47;1.20;;;11.10;54.80;;;;;;4991377;28;20473;-57
2022/12/27 02:09:19;;;;;;;2.73;1.20;;;11.20;54.50;;;;;;4991602;28;20433;-57
2022/12/27 02:11:50;;;;;;;1.10;1.00;;;11.20;54.70;;;;;;4991665;28;20464;-57
2022/12/27 02:14:22;;;;;;;1.53;0.90;;;11.20;54.50;;;;;;4991905;28;20438;-57
2022/12/27 02:16:48;;;;;;;1.23;0.80;;;11.20;54.60;;;;;;4991200;28;20474;-57
2022/12/27 02:19:37;;;;;;;1.30;1.03;;;11.20;54.60;;;;;;4991757;28;20472;-57
2022/12/27 02:22:19;;;;;;;1.47;1.10;;;11.20;54.70;;;;;;4973270;28;20576;-57
2022/12/27 02:25:27;;;;;;;3.80;1.10;;;11.20;54.80;;;;;;4991256;28;20438;-57
2022/12/27 02:28:08;;;;;;;1.50;1.40;;;11.20;54.70;;;;;;4990150;28;20441;-58
2022/12/27 02:30:35;;;;;;;1.60;0.90;;;11.10;54.60;;;;;;4991600;28;20422;-57
2022/12/27 02:33:12;;;;;;;6.20;1.50;;;11.10;54.70;;;;;;4991640;28;20429;-58
2022/12/27 02:35:53;;;;;;;2.07;1.03;;;11.10;54.70;;;;;;4991211;28;20434;-57
2022/12/27 02:38:23;;;;;;;1.30;1.20;;;11.10;54.90;;;;;;4991731;28;20802;-57
2022/12/27 02:53:02;;;;;;;1.40;1.00;;;10.90;54.80;;;;;;4934787;29;20527;-57
2022/12/27 02:58:55;;;;;;;1.83;1.17;;;10.50;55.00;;;;;;4994717;28;20457;-58
2022/12/27 03:05:21;;;;;;;2.43;1.60;;;10.50;55.80;;;;;;4979628;28;20646;-57
2022/12/27 03:08:05;;;;;;;2.40;1.40;;;10.60;55.60;;;;;;4994622;28;20541;-57
2022/12/27 03:16:30;;;;;;;1.90;1.50;;;10.50;56.00;;;;;;4994318;28;20476;-57
2022/12/27 03:19:02;;;;;;;2.03;1.30;;;10.50;56.10;;;;;;4994567;28;20423;-57
2022/12/27 03:27:32;;;;;;;2.50;1.60;;;10.50;56.10;;;;;;4994359;28;20541;-57
2022/12/27 03:33:13;;;;;;;3.43;1.83;;;10.40;56.00;;;;;;4994384;28;20507;-57
2022/12/27 03:38:53;;;;;;;1.40;1.00;;;10.40;55.70;;;;;;4993909;28;20521;-57
2022/12/27 03:44:25;;;;;;;1.70;1.40;;;10.30;55.60;;;;;;4993898;28;21013;-57
2022/12/27 03:47:02;;;;;;;2.57;1.63;;;10.20;55.60;;;;;;4991948;28;21055;-57
2022/12/27 03:49:32;;;;;;;1.33;1.13;;;10.20;55.80;;;;;;4993945;28;20508;-57
2022/12/27 03:52:13;;;;;;;5.00;1.30;;;10.00;55.80;;;;;;4993958;28;20437;-57
2022/12/27 03:54:41;;;;;;;2.17;1.30;;;10.00;56.00;;;;;;4993971;28;20430;-57
2022/12/27 03:57:22;;;;;;;1.30;1.10;;;10.00;56.10;;;;;;4993293;28;20798;-57
2022/12/27 03:59:48;;;;;;;3.07;1.40;;;10.00;56.00;;;;;;4993329;28;20428;-57
2022/12/27 04:02:14;;;;;;;1.80;1.10;;;10.10;56.20;;;;;;4993668;28;20437;-58
2022/12/27 04:04:40;;;;;;;4.50;1.60;;;10.10;56.10;;;;;;4993663;28;20437;-57
2022/12/27 04:07:06;;;;;;;2.90;1.50;;;10.10;56.10;;;;;;4993066;28;20542;-57
2022/12/27 04:36:56;;;;;;;1.83;1.40;;;9.90;56.30;;;;;;4992655;28;20461;-57
2022/12/27 04:39:22;;;;;;;1.27;0.97;;;9.80;56.20;;;;;;4991247;28;20450;-57
2022/12/27 04:55:32;;;;;;;1.77;1.47;;;9.50;56.70;;;;;;4992293;28;21027;-57
2022/12/27 04:57:57;;;;;;;2.00;1.60;;;9.50;56.80;;;;;;4992702;28;20429;-57
2022/12/27 05:03:17;;;;;;;1.90;1.70;;;9.40;57.30;;;;;;4992861;28;20193;-57
2022/12/27 05:05:43;;;;;;;1.70;1.37;;;9.40;57.10;;;;;;4990383;28;20488;-57
2022/12/27 05:13:59;;;;;;;2.50;1.63;;;9.30;57.20;;;;;;4992491;28;20803;-57
2022/12/27 05:16:36;;;;;;;1.97;1.47;;;9.30;57.10;;;;;;4991782;28;20465;-57
2022/12/27 05:19:02;;;;;;;1.13;1.07;;;9.00;57.30;;;;;;4992465;28;20956;-57
2022/12/27 05:21:27;;;;;;;1.33;1.10;;;9.10;57.70;;;;;;4992231;28;20433;-57
2022/12/27 05:26:38;;;;;;;1.30;1.00;;;9.30;57.10;;;;;;4989703;28;20289;-57
2022/12/27 05:29:05;;;;;;;1.43;1.33;;;9.40;57.10;;;;;;4992049;28;20925;-57
2022/12/27 05:31:31;;;;;;;2.37;1.30;;;9.40;56.90;;;;;;4992011;28;20421;-57
2022/12/27 05:33:57;;;;;;;2.07;1.03;;;9.50;56.80;;;;;;4990429;28;20426;-57
2022/12/27 05:36:23;;;;;;;5.40;1.73;;;9.50;56.50;;;;;;4991646;28;20430;-57
2022/12/27 05:38:49;;;;;;;2.73;1.80;;;9.50;56.50;;;;;;4992033;28;20430;-58
2022/12/27 05:41:15;;;;;;;2.57;1.60;;;9.50;56.50;;;;;;4992059;28;20434;-57
2022/12/27 05:43:41;;;;;;;2.30;1.93;;;9.50;56.50;;;;;;4992135;28;20449;-57
2022/12/27 05:46:14;;;;;;;4.80;2.20;;;9.60;56.50;;;;;;4991258;28;20253;-57
2022/12/27 05:48:40;;;;;;;3.80;1.90;;;9.60;56.40;;;;;;4992007;28;20659;-57
2022/12/27 05:51:15;;;;;;;1.63;1.53;;;9.60;56.20;;;;;;4991818;28;20434;-57
2022/12/27 05:53:41;;;;;;;3.60;1.90;;;9.50;56.20;;;;;;4992079;28;20525;-57
2022/12/27 05:56:08;;;;;;;2.83;2.00;;;9.30;56.40;;;;;;4991574;28;20430;-57
2022/12/27 05:58:33;;;;;;;1.40;1.30;;;9.20;56.90;;;;;;4990074;28;20434;-57
2022/12/27 06:01:00;;;;;;;2.97;2.30;;;9.10;57.40;;;;;;4991871;28;20426;-58
2022/12/27 06:03:26;;;;;;;4.60;1.37;;;9.10;58.00;;;;;;4991788;28;20457;-57
2022/12/27 06:05:58;;;;;;;1.70;1.60;;;9.00;57.60;;;;;;4991366;28;20848;-57
2022/12/27 06:08:24;;;;;;;1.87;1.57;;;8.70;58.10;;;;;;4991825;28;20488;-57
2022/12/27 06:10:52;;;;;;;2.63;1.53;;;8.80;58.20;;;;;;4991764;28;20442;-57
2022/12/27 06:13:17;;;;;;;6.53;3.23;;;8.90;58.10;;;;;;4991646;28;20198;-57
2022/12/27 06:15:43;;;;;;;4.63;3.47;;;9.00;57.90;;;;;;4991394;28;20916;-57
2022/12/27 06:18:08;;;;;;;3.57;3.00;;;9.00;57.60;;;;;;4992860;28;20599;-57
2022/12/27 06:20:34;;;;;;;3.63;2.10;;;8.90;57.70;;;;;;5003422;28;20248;-57
2022/12/27 06:22:59;;;;;;;3.70;2.17;;;8.60;58.00;;;;;;4993661;28;20202;-57
2022/12/27 06:25:25;;;;;;;6.53;2.00;;;8.40;59.00;;;;;;4989543;28;20280;-57
2022/12/27 06:27:51;;;;;;;2.43;1.40;;;8.30;59.30;;;;;;4995517;28;20191;-57
2022/12/27 06:30:16;;;;;;;2.30;1.93;;;8.30;59.30;;;;;;4995483;28;20593;-57
2022/12/27 06:32:42;;;;;;;3.73;1.87;;;8.40;59.30;;;;;;4995182;28;20673;-57
2022/12/27 06:35:07;;;;;;;1.63;1.53;;;8.50;59.10;;;;;;4995087;28;20210;-57
2022/12/27 06:37:33;;;;;;;2.83;1.60;;;8.60;58.80;;;;;;4995234;28;20214;-57
2022/12/27 06:39:58;;;;;;;1.67;1.57;;;8.70;58.60;;;;;;4995418;28;20673;-57
2022/12/27 06:42:24;;;;;;;2.30;1.67;;;8.70;58.30;;;;;;4995036;28;20226;-57
2022/12/27 06:44:50;;;;;;;6.47;1.90;;;8.70;58.30;;;;;;4995068;28;20203;-57
2022/12/27 06:47:15;;;;;;;3.53;2.10;;;8.70;58.30;;;;;;4994615;28;20191;-57
2022/12/27 06:49:41;;;;;;;2.37;1.67;;;8.70;58.20;;;;;;4995043;28;20249;-57
2022/12/27 06:52:06;;;;;;;1.60;1.50;;;8.80;58.30;;;;;;4993371;28;20646;-57
2022/12/27 06:54:32;;;;;;;5.40;1.87;;;8.70;58.10;;;;;;4994962;28;20202;-57
2022/12/27 06:56:57;;;;;;;2.37;1.87;;;8.80;58.30;;;;;;4994749;28;20194;-57
2022/12/27 06:59:23;;;;;;;7.80;1.97;;;8.80;58.20;;;;;;4994898;28;20195;-57
2022/12/27 07:01:49;;;;;;;2.77;1.90;;;8.80;58.00;;;;;;4994860;28;20191;-57
2022/12/27 07:04:14;;;;;;;2.07;1.83;;;8.90;58.00;;;;;;4994847;28;20202;-57
2022/12/27 07:06:40;;;;;;;7.23;1.30;;;8.80;57.80;;;;;;4993202;28;20659;-57
2022/12/27 07:09:06;;;;;;;1.83;1.50;;;8.50;58.40;;;;;;4994690;28;20213;-57
2022/12/27 07:11:36;;;;;;;2.30;1.50;;;8.40;58.80;;;;;;4994828;28;20607;-57
2022/12/27 07:14:01;;;;;;;1.50;1.40;;;8.30;59.60;;;;;;4994838;28;20195;-57
2022/12/27 07:16:28;;;;;;;2.07;1.70;;;8.30;59.20;;;;;;4994012;28;20481;-58
2022/12/27 07:18:57;;;;;;;2.93;1.80;;;8.30;59.10;;;;;;5000613;28;20207;-57
2022/12/27 07:21:24;;;;;;;2.23;1.80;;;8.40;59.20;;;;;;4999218;28;20532;-57
2022/12/27 07:23:50;;;;;;;5.17;1.90;;;8.50;58.70;;;;;;4993243;28;20492;-57
2022/12/27 07:26:28;;;;;;;2.60;1.80;;;8.40;58.70;;;;;;4990851;28;20843;-57
2022/12/27 07:28:55;;;;;;;2.10;1.77;;;8.50;58.70;;;;;;4994201;28;20917;-57
2022/12/27 07:31:25;;;;;;;2.77;1.60;;;8.60;58.60;;;;;;4994024;28;20480;-57
2022/12/27 07:33:51;;;;;;;2.17;1.90;;;8.80;58.70;;;;;;4993302;28;20461;-57
2022/12/27 07:36:19;;;;;;;2.03;1.40;;;9.20;58.60;;;;;;4993567;28;20425;-57
2022/12/27 07:38:45;;;;;;;1.93;1.73;;;9.80;57.20;;;;;;4993972;28;20905;-57
2022/12/27 07:41:12;;;;;;;13.60;2.33;;;10.60;55.00;;;;;;4994133;28;20414;-57
2022/12/27 07:43:38;;;;;;;3.23;1.97;;;11.00;52.50;;;;;;4994070;28;20525;-57
2022/12/27 07:46:03;;;;;;;4.03;2.17;;;11.40;51.50;;;;;;4991829;28;20493;-57
2022/12/27 07:48:29;;;;;;;4.37;3.37;;;11.70;51.30;;;;;;4992663;28;20473;-57
2022/12/27 07:50:54;;;;;;;7.87;4.00;;;12.30;49.90;;;;;;4993784;28;20194;-57
2022/12/27 07:53:20;;;;;;;6.00;4.10;;;12.80;48.80;;;;;;4993719;28;20786;-57
2022/12/27 07:55:46;;;;;;;9.23;6.40;;;13.00;48.20;;;;;;4993239;28;20194;-58
2022/12/27 07:58:12;;;;;;;6.67;5.47;;;13.00;47.70;;;;;;4993867;28;20205;-59
2022/12/27 08:00:38;;;;;;;9.90;5.93;;;13.10;47.80;;;;;;4993720;28;20194;-57
2022/12/27 08:03:03;;;;;;;7.30;5.50;;;13.00;47.80;;;;;;4993742;28;20800;-57
2022/12/27 08:05:29;;;;;;;8.90;5.00;;;12.90;47.90;;;;;;4993207;28;20305;-57
2022/12/27 08:08:00;;;;;;;4.83;3.20;;;12.60;48.40;;;;;;4993485;28;20261;-57
2022/12/27 08:10:25;;;;;;;2.30;1.97;;;12.30;49.10;;;;;;4993497;28;20194;-57
2022/12/27 08:12:51;;;;;;;2.87;1.77;;;11.80;49.50;;;;;;4991869;28;20430;-58
2022/12/27 08:15:16;;;;;;;4.00;1.87;;;11.20;50.60;;;;;;4992975;28;20206;-57
2022/12/27 08:17:42;;;;;;;2.47;1.80;;;10.60;52.20;;;;;;4993403;28;20317;-57
2022/12/27 08:20:13;;;;;;;3.80;1.80;;;10.20;53.60;;;;;;5006788;28;20194;-57
2022/12/27 08:22:38;;;;;;;2.53;2.33;;;10.00;54.40;;;;;;4993373;28;20202;-57
2022/12/27 08:25:05;;;;;;;2.83;1.80;;;9.90;55.60;;;;;;4988835;28;20801;-57
2022/12/27 08:27:30;;;;;;;3.67;2.17;;;9.80;56.00;;;;;;4993254;28;20356;-57
2022/12/27 08:29:56;;;;;;;4.70;2.10;;;9.80;56.20;;;;;;4993052;28;20504;-57
2022/12/27 08:32:22;;;;;;;6.10;1.93;;;9.90;56.20;;;;;;4993044;28;20201;-57
2022/12/27 08:34:48;;;;;;;2.33;2.07;;;9.90;56.20;;;;;;4992489;28;20205;-58
2022/12/27 08:37:14;;;;;;;3.50;1.93;;;10.00;55.40;;;;;;4992980;28;20434;-57
2022/12/27 08:39:40;;;;;;;3.13;2.27;;;9.80;56.10;;;;;;4991938;28;20198;-57
2022/12/27 08:42:08;;;;;;;4.20;2.30;;;9.80;56.40;;;;;;4993053;28;20802;-57
2022/12/27 08:44:33;;;;;;;2.40;2.20;;;9.70;56.90;;;;;;4992912;28;20430;-57
2022/12/27 08:46:59;;;;;;;2.23;2.03;;;9.80;57.20;;;;;;4992551;28;20507;-57
2022/12/27 08:49:24;;;;;;;3.10;2.53;;;9.80;57.10;;;;;;4992699;28;20257;-58
2022/12/27 08:51:50;;;;;;;2.23;1.80;;;9.80;57.30;;;;;;4992707;28;20206;-58
2022/12/27 08:54:16;;;;;;;2.23;1.87;;;9.80;57.40;;;;;;4992695;28;20198;-57
2022/12/27 08:56:41;;;;;;;3.43;1.80;;;9.80;57.50;;;;;;4992228;28;20195;-57
2022/12/27 08:59:07;;;;;;;5.47;2.63;;;9.80;57.70;;;;;;4992620;28;20798;-57
2022/12/27 09:01:32;;;;;;;4.60;2.23;;;9.70;57.60;;;;;;4992599;28;20606;-57
2022/12/27 09:03:58;;;;;;;2.30;2.10;;;9.60;57.50;;;;;;4991387;28;20590;-57
2022/12/27 09:06:26;;;;;;;2.70;2.07;;;9.40;58.00;;;;;;4991868;28;20226;-57
2022/12/27 09:08:53;;;;;;;14.43;3.13;;;9.50;58.50;;;;;;4992482;28;20221;-57
2022/12/27 09:11:30;;;;;;;2.70;2.50;;;9.70;57.80;;;;;;4992359;28;20841;-57
2022/12/27 09:13:59;;;;;;;3.83;2.30;;;9.80;57.40;;;;;;4992395;28;20421;-57
2022/12/27 09:16:29;;;;;;;2.27;2.00;;;10.00;56.50;;;;;;4991859;28;20808;-57
2022/12/27 09:18:57;;;;;;;3.23;2.20;;;10.10;56.50;;;;;;5000124;28;20487;-57
2022/12/27 09:21:25;;;;;;;3.67;2.20;;;10.00;56.60;;;;;;4997255;28;20893;-57
2022/12/27 09:23:51;;;;;;;4.13;2.17;;;10.20;56.50;;;;;;4991083;28;20483;-57
2022/12/27 09:26:19;;;;;;;4.33;2.60;;;10.30;56.40;;;;;;4988810;28;20587;-57
2022/12/27 09:28:46;;;;;;;3.20;2.30;;;10.50;56.00;;;;;;4992057;28;20430;-57
2022/12/27 09:31:13;;;;;;;3.63;2.57;;;10.40;55.20;;;;;;4990484;28;20418;-57
2022/12/27 09:33:39;;;;;;;5.70;3.57;;;10.40;55.30;;;;;;4992245;28;20426;-57
2022/12/27 09:36:10;;;;;;;7.60;4.03;;;10.50;55.80;;;;;;4991620;28;20510;-58
2022/12/27 09:38:37;;;;;;;5.40;3.10;;;10.50;55.90;;;;;;4992228;28;20429;-57
2022/12/27 09:41:10;;;;;;;4.70;2.90;;;10.40;56.40;;;;;;4992020;28;20429;-58
2022/12/27 09:43:38;;;;;;;4.37;2.93;;;10.40;56.50;;;;;;4992110;28;20426;-58
2022/12/27 09:46:10;;;;;;;3.53;1.90;;;10.70;56.30;;;;;;4991603;28;20625;-57
2022/12/27 09:48:38;;;;;;;2.60;2.40;;;11.00;55.00;;;;;;4992035;28;20521;-58
2022/12/27 09:51:16;;;;;;;4.83;2.33;;;11.30;54.60;;;;;;4992124;28;20433;-57
2022/12/27 09:53:42;;;;;;;4.93;1.97;;;11.70;53.70;;;;;;4992129;28;20430;-57
2022/12/27 09:56:11;;;;;;;3.83;2.13;;;11.70;53.00;;;;;;4991654;28;20436;-57
2022/12/27 09:58:43;;;;;;;3.13;1.80;;;11.30;53.20;;;;;;4993621;28;20194;-57
2022/12/27 10:01:32;;;;;;;3.10;1.70;;;11.30;54.50;;;;;;4996100;28;20456;-57
2022/12/27 10:03:58;;;;;;;2.60;1.70;;;11.50;54.20;;;;;;4995721;28;20433;-57
2022/12/27 10:06:33;;;;;;;4.10;2.30;;;11.70;52.90;;;;;;4995447;28;20844;-58
2022/12/27 10:09:22;;;;;;;4.07;3.17;;;11.80;52.30;;;;;;4995743;28;20572;-57
2022/12/27 10:12:08;;;;;;;2.60;2.37;;;11.80;52.80;;;;;;4995798;28;20425;-57
2022/12/27 10:15:15;;;;;;;2.90;2.07;;;11.50;52.90;;;;;;4995214;28;20430;-57
2022/12/27 10:18:05;;;;;;;2.10;1.90;;;11.60;53.80;;;;;;4954404;29;20494;-58
2022/12/27 10:20:57;;;;;;;2.23;1.67;;;11.70;53.20;;;;;;4983130;28;20452;-57
2022/12/27 10:23:27;;;;;;;2.63;2.17;;;11.70;52.50;;;;;;4994556;28;20921;-57
2022/12/27 10:26:05;;;;;;;2.20;2.00;;;12.10;52.70;;;;;;4994588;28;20480;-57
2022/12/27 10:28:59;;;;;;;4.97;2.00;;;12.40;51.20;;;;;;4995699;28;20816;-57
2022/12/27 10:31:25;;;;;;;2.80;2.57;;;12.50;50.80;;;;;;4995496;28;20447;-57
2022/12/27 10:33:51;;;;;;;4.97;2.17;;;12.60;50.50;;;;;;4995393;28;20464;-58
2022/12/27 10:36:21;;;;;;;2.40;1.63;;;12.70;50.50;;;;;;4994852;28;20453;-57
2022/12/27 10:38:46;;;;;;;3.17;2.23;;;12.90;50.60;;;;;;4995324;28;20480;-58
2022/12/27 10:41:28;;;;;;;4.47;2.37;;;13.10;50.30;;;;;;4995475;28;20442;-58
2022/12/27 10:43:54;;;;;;;3.97;2.00;;;13.20;49.70;;;;;;4995265;28;20192;-58
2022/12/27 10:46:25;;;;;;;2.83;2.43;;;13.20;48.80;;;;;;4994824;28;20485;-58
2022/12/27 10:49:04;;;;;;;2.63;2.43;;;13.30;48.80;;;;;;4994968;28;20453;-58
2022/12/27 10:51:39;;;;;;;2.60;1.50;;;13.50;49.50;;;;;;4993433;28;20430;-58
2022/12/27 10:54:12;;;;;;;3.90;1.73;;;13.60;48.40;;;;;;4994866;28;20438;-58
2022/12/27 10:56:40;;;;;;;3.17;1.53;;;13.80;48.30;;;;;;4994421;28;20984;-58
2022/12/27 10:59:17;;;;;;;5.47;1.60;;;13.80;47.50;;;;;;4994633;28;20507;-58
2022/12/27 11:01:59;;;;;;;2.40;1.50;;;13.70;47.80;;;;;;4994830;28;20484;-58
2022/12/27 11:04:25;;;;;;;5.97;1.97;;;13.80;48.30;;;;;;4994666;28;20430;-58
2022/12/27 11:07:02;;;;;;;4.20;2.30;;;14.00;47.40;;;;;;4994458;28;20477;-59
2022/12/27 11:09:36;;;;;;;3.43;1.70;;;14.20;46.40;;;;;;4993442;28;20783;-58
2022/12/27 11:12:16;;;;;;;2.50;1.70;;;14.40;46.60;;;;;;4994497;28;20446;-58
2022/12/27 11:15:09;;;;;;;3.03;1.47;;;14.40;46.20;;;;;;4994213;28;20496;-58
2022/12/27 11:17:46;;;;;;;2.43;1.60;;;14.30;46.40;;;;;;4992935;28;20481;-58
2022/12/27 11:20:27;;;;;;;2.80;1.57;;;14.40;46.70;;;;;;5007742;28;20456;-58
2022/12/27 11:23:04;;;;;;;2.90;2.10;;;14.30;46.60;;;;;;4994454;28;20446;-58
2022/12/27 11:25:32;;;;;;;2.80;1.50;;;14.30;47.10;;;;;;4989997;28;20953;-58
2022/12/27 11:28:05;;;;;;;3.37;2.00;;;14.40;46.80;;;;;;4994190;28;20428;-58
2022/12/27 11:30:35;;;;;;;2.17;1.67;;;14.50;47.10;;;;;;4994211;28;20432;-58
2022/12/27 11:33:17;;;;;;;3.23;2.07;;;14.50;47.20;;;;;;4994261;28;20472;-58
2022/12/27 11:35:50;;;;;;;2.90;2.13;;;14.40;47.10;;;;;;4993932;28;20430;-58
2022/12/27 11:38:26;;;;;;;3.37;2.30;;;14.40;46.90;;;;;;4994366;28;20433;-58
2022/12/27 11:41:14;;;;;;;3.60;2.03;;;14.30;47.00;;;;;;4994099;28;20445;-59
2022/12/27 11:43:51;;;;;;;3.23;2.03;;;14.20;47.50;;;;;;4992779;28;20552;-58
2022/12/27 11:46:36;;;;;;;2.70;1.70;;;14.20;47.60;;;;;;4993497;28;20485;-58
2022/12/27 11:49:07;;;;;;;6.23;1.40;;;14.10;47.10;;;;;;4994117;28;20441;-58
2022/12/27 11:52:15;;;;;;;4.27;2.37;;;14.10;46.80;;;;;;4994072;28;20430;-58
2022/12/27 11:55:09;;;;;;;3.13;1.80;;;14.10;47.20;;;;;;4993405;28;20475;-58
2022/12/27 11:57:44;;;;;;;1.43;1.20;;;14.00;47.60;;;;;;4993633;28;20429;-58
2022/12/27 12:00:09;;;;;;;2.03;1.50;;;14.00;47.80;;;;;;4993737;28;20436;-58
2022/12/27 12:03:02;;;;;;;4.20;1.60;;;14.10;48.00;;;;;;4993467;28;20513;-58
2022/12/27 12:05:31;;;;;;;3.00;1.70;;;14.20;47.70;;;;;;4993137;28;20506;-59
2022/12/27 12:08:27;;;;;;;2.83;2.23;;;14.30;47.80;;;;;;4993622;28;20433;-58
2022/12/27 12:11:11;;;;;;;2.03;1.47;;;14.40;48.10;;;;;;4991955;28;20430;-58
2022/12/27 12:13:51;;;;;;;2.33;1.60;;;14.40;47.10;;;;;;4993240;28;20453;-58
2022/12/27 12:16:50;;;;;;;3.20;1.60;;;14.40;46.50;;;;;;4993029;28;20430;-58
2022/12/27 12:19:54;;;;;;;2.80;1.50;;;14.20;46.90;;;;;;5003920;28;20499;-58
2022/12/27 12:22:43;;;;;;;2.50;1.10;;;14.10;46.60;;;;;;4952387;28;20454;-58
2022/12/27 12:25:40;;;;;;;3.60;1.20;;;14.10;46.50;;;;;;4992688;28;20450;-58
2022/12/27 12:28:39;;;;;;;4.77;1.33;;;14.00;46.50;;;;;;4993154;28;20480;-58
2022/12/27 12:31:42;;;;;;;2.20;1.40;;;13.90;46.50;;;;;;4992956;28;20926;-58
2022/12/27 12:34:14;;;;;;;2.83;1.43;;;13.90;46.40;;;;;;4993261;28;20778;-58
2022/12/27 12:37:12;;;;;;;2.30;1.40;;;14.00;46.70;;;;;;4991116;28;20814;-58
2022/12/27 12:39:50;;;;;;;1.50;1.37;;;14.00;46.40;;;;;;4993217;28;20786;-58
2022/12/27 12:42:29;;;;;;;2.23;1.50;;;13.70;46.50;;;;;;4992998;28;20504;-58
2022/12/27 12:45:05;;;;;;;2.17;1.43;;;13.90;47.50;;;;;;4992504;28;20441;-58
2022/12/27 12:47:52;;;;;;;2.67;1.60;;;14.00;46.60;;;;;;4992669;28;20449;-58
2022/12/27 12:50:44;;;;;;;2.20;1.27;;;14.10;46.70;;;;;;4993121;28;20952;-59
2022/12/27 12:53:28;;;;;;;3.07;1.40;;;14.20;46.50;;;;;;4992953;28;20810;-58
2022/12/27 12:56:00;;;;;;;6.63;1.97;;;14.20;47.10;;;;;;4992223;28;20476;-58
2022/12/27 12:58:43;;;;;;;3.50;1.50;;;14.10;46.60;;;;;;4992764;28;20445;-58
2022/12/27 13:01:32;;;;;;;4.10;2.30;;;13.90;47.20;;;;;;4992750;28;20441;-58
2022/12/27 13:04:21;;;;;;;4.63;2.67;;;13.90;47.50;;;;;;4961689;28;20526;-58
2022/12/27 13:07:11;;;;;;;3.63;2.40;;;14.00;47.60;;;;;;4992324;28;20997;-58
2022/12/27 13:09:46;;;;;;;1.80;1.43;;;14.00;47.40;;;;;;4992364;28;20948;-58
2022/12/27 13:13:03;;;;;;;2.90;1.80;;;14.10;47.10;;;;;;4992500;28;20432;-58
2022/12/27 13:15:37;;;;;;;2.67;1.23;;;14.20;46.80;;;;;;4958864;28;20537;-58
2022/12/27 13:18:39;;;;;;;5.27;1.77;;;14.10;47.00;;;;;;4992125;28;20539;-58
2022/12/27 13:21:23;;;;;;;2.40;1.60;;;14.10;47.40;;;;;;4992493;28;20790;-58
2022/12/27 13:23:58;;;;;;;1.33;1.23;;;13.90;47.10;;;;;;4992169;28;20437;-58
2022/12/27 13:27:01;;;;;;;2.30;2.10;;;14.00;46.90;;;;;;4991609;28;20490;-58
2022/12/27 13:29:39;;;;;;;2.20;1.57;;;13.60;47.20;;;;;;4981285;28;20843;-58
2022/12/27 13:32:10;;;;;;;2.97;2.00;;;13.60;47.70;;;;;;4991452;28;20438;-58
2022/12/27 13:34:55;;;;;;;3.40;1.80;;;13.60;47.80;;;;;;4991514;28;20456;-58
2022/12/27 13:37:44;;;;;;;2.80;1.40;;;13.40;48.30;;;;;;4992164;28;20477;-58
2022/12/27 13:40:34;;;;;;;4.10;1.27;;;13.20;48.40;;;;;;4992144;28;20434;-58
2022/12/27 13:43:24;;;;;;;1.60;1.50;;;13.30;48.10;;;;;;4991933;28;20445;-58
2022/12/27 13:46:28;;;;;;;2.90;1.60;;;13.40;48.10;;;;;;4991494;28;20492;-58
2022/12/27 13:49:20;;;;;;;2.40;1.47;;;13.70;48.00;;;;;;4988740;28;20441;-59
2022/12/27 13:51:50;;;;;;;2.93;1.77;;;14.00;47.50;;;;;;4992072;28;20451;-58
2022/12/27 13:54:24;;;;;;;2.23;1.63;;;14.20;47.00;;;;;;4991297;28;20425;-58
2022/12/27 13:56:53;;;;;;;1.90;1.30;;;14.20;46.50;;;;;;4990367;28;20441;-57
2022/12/27 13:59:45;;;;;;;2.17;1.37;;;13.90;46.90;;;;;;4991700;28;20438;-58
2022/12/27 14:02:36;;;;;;;2.47;1.20;;;13.90;46.90;;;;;;4992019;28;20433;-58
2022/12/27 14:05:02;;;;;;;2.40;1.50;;;14.00;46.80;;;;;;4991305;28;20941;-58
2022/12/27 14:07:54;;;;;;;2.80;1.53;;;14.00;46.80;;;;;;4991965;28;20468;-58
2022/12/27 14:10:33;;;;;;;3.90;1.50;;;13.90;47.10;;;;;;4991768;28;20719;-58
2022/12/27 14:13:08;;;;;;;2.73;1.43;;;13.70;47.80;;;;;;4991999;28;20438;-58
2022/12/27 14:15:49;;;;;;;2.57;1.77;;;13.70;47.60;;;;;;4991485;28;21003;-58
2022/12/27 14:18:28;;;;;;;6.50;1.40;;;13.90;47.50;;;;;;4991437;28;20472;-58
2022/12/27 14:21:03;;;;;;;2.77;2.10;;;14.20;47.30;;;;;;4991634;28;20505;-58
2022/12/27 14:23:43;;;;;;;1.53;1.23;;;14.30;46.60;;;;;;4990211;28;20422;-58
2022/12/27 14:26:42;;;;;;;7.03;1.33;;;14.40;46.80;;;;;;4991292;28;20894;-58
2022/12/27 14:29:29;;;;;;;4.77;1.70;;;14.50;46.50;;;;;;4992008;28;21012;-58
2022/12/27 14:32:28;;;;;;;2.17;1.10;;;14.50;46.30;;;;;;4991698;28;20426;-58
2022/12/27 14:35:32;;;;;;;4.00;1.90;;;14.60;46.30;;;;;;4991166;28;20480;-58
2022/12/27 14:38:19;;;;;;;2.63;1.30;;;14.70;46.10;;;;;;4991437;28;20444;-58
2022/12/27 14:41:24;;;;;;;3.97;1.30;;;14.70;46.40;;;;;;4991312;28;20814;-58
2022/12/27 14:44:14;;;;;;;1.70;1.40;;;14.80;46.70;;;;;;4993108;28;20449;-58
2022/12/27 14:47:15;;;;;;;2.60;1.70;;;14.70;46.10;;;;;;4995227;28;20489;-58
2022/12/27 14:50:15;;;;;;;3.57;1.57;;;14.60;46.50;;;;;;4993655;28;20426;-58
2022/12/27 14:53:02;;;;;;;4.83;2.17;;;14.40;46.90;;;;;;4963286;28;20987;-58
2022/12/27 14:55:39;;;;;;;2.00;1.67;;;14.30;46.90;;;;;;4994483;28;20465;-58
2022/12/27 14:58:42;;;;;;;2.60;2.13;;;14.20;46.90;;;;;;4994873;28;20467;-58